Time;durP1;ratioP1;P1;durP2;ratioP2;P2;SDS_P1;SDS_P2;PMS_P1;PMS_P2;Temp;Humidity;BMP_temperature;BMP_pressure;BME280_temperature;BME280_humidity;BME280_pressure;Samples;Min_cycle;Max_cycle;Signal;HPM_P1;HPM_P2
2023/04/20 00:00:48;;;;;;;6.10;4.00;;;;;;;4.63;90.64;96927.00;110411;1241;59745;-73
2023/04/20 00:03:20;;;;;;;5.20;4.30;;;;;;;4.62;92.39;96922.89;110468;1242;59715;-72
2023/04/20 00:05:49;;;;;;;4.50;3.50;;;;;;;4.53;93.21;96918.38;111662;1240;72458;-71
2023/04/20 00:08:22;;;;;;;7.00;4.90;;;;;;;4.41;95.28;96916.11;110415;1242;69241;-73
2023/04/20 00:10:54;;;;;;;6.40;4.40;;;;;;;4.29;93.55;96914.23;110312;1241;68561;-72
2023/04/20 00:13:25;;;;;;;7.30;4.90;;;;;;;4.17;96.51;96914.40;110316;1241;59699;-72
2023/04/20 00:15:57;;;;;;;8.20;5.10;;;;;;;4.06;98.17;96911.99;110276;1242;59691;-73
2023/04/20 00:18:28;;;;;;;7.00;5.10;;;;;;;4.00;97.31;96916.50;110249;1242;70679;-72
2023/04/20 00:21:01;;;;;;;6.50;4.50;;;;;;;3.93;95.65;96913.77;110280;1242;69237;-70
2023/04/20 00:23:32;;;;;;;5.50;4.40;;;;;;;3.88;93.38;96918.71;110449;1241;68526;-72
2023/04/20 00:26:02;;;;;;;6.50;4.90;;;;;;;3.86;94.46;96915.89;110245;1241;59760;-71
2023/04/20 00:28:33;;;;;;;8.20;5.30;;;;;;;3.82;93.65;96914.36;110139;1241;59740;-71
2023/04/20 00:31:05;;;;;;;9.10;5.10;;;;;;;3.76;92.77;96912.23;110282;1245;71386;-71
2023/04/20 00:33:38;;;;;;;8.70;5.80;;;;;;;3.69;91.69;96910.95;110315;1242;69250;-71
2023/04/20 00:36:10;;;;;;;7.60;5.50;;;;;;;3.57;92.18;96910.86;110316;1242;69324;-71
2023/04/20 00:38:41;;;;;;;11.10;6.60;;;;;;;3.50;96.29;96911.08;110387;1244;59727;-71
2023/04/20 00:41:12;;;;;;;8.30;5.40;;;;;;;3.44;96.51;96910.35;110269;1242;59682;-71
2023/04/20 00:43:51;;;;;;;5.80;4.30;;;;;;;3.39;97.46;96912.31;110189;1244;70552;-72
2023/04/20 00:46:22;;;;;;;6.40;4.60;;;;;;;3.35;95.25;96907.39;110102;1244;67567;-71
2023/04/20 00:48:56;;;;;;;5.20;3.60;;;;;;;3.33;95.15;96906.10;110196;1241;70045;-71
2023/04/20 00:51:28;;;;;;;6.50;4.20;;;;;;;3.31;94.29;96903.26;110135;1243;59757;-71
2023/04/20 00:54:00;;;;;;;9.50;6.20;;;;;;;3.31;99.27;96903.40;110194;1244;59645;-71
2023/04/20 00:56:30;;;;;;;8.10;5.30;;;;;;;3.28;98.72;96903.26;110144;1241;71956;-71
2023/04/20 00:59:02;;;;;;;8.20;6.10;;;;;;;3.24;97.86;96903.61;110237;1241;69213;-71
2023/04/20 01:01:33;;;;;;;8.80;6.00;;;;;;;3.19;97.79;96903.52;110206;1241;68503;-71
2023/04/20 01:04:04;;;;;;;8.20;6.00;;;;;;;3.16;95.57;96908.55;110013;1244;59755;-70
2023/04/20 01:06:35;;;;;;;8.00;5.70;;;;;;;3.16;96.04;96908.52;110273;1242;59699;-72
2023/04/20 01:09:06;;;;;;;7.70;5.10;;;;;;;3.20;95.41;96907.61;110618;1240;71344;-71
2023/04/20 01:11:40;;;;;;;7.20;5.10;;;;;;;3.25;97.67;96907.87;111540;1242;68632;-69
2023/04/20 01:14:14;;;;;;;8.10;5.40;;;;;;;3.27;95.74;96907.42;110189;1244;69390;-73
2023/04/20 01:16:46;;;;;;;7.50;5.60;;;;;;;3.29;94.30;96910.11;110202;1244;59740;-72
2023/04/20 01:19:17;;;;;;;7.20;5.50;;;;;;;3.31;94.22;96905.52;110172;1245;59628;-71
2023/04/20 01:21:47;;;;;;;6.40;5.40;;;;;;;3.35;94.17;96910.98;110177;1244;71401;-71
2023/04/20 01:24:18;;;;;;;6.60;4.80;;;;;;;3.37;94.61;96908.47;110191;1241;69214;-69
2023/04/20 01:26:47;;;;;;;6.20;4.80;;;;;;;3.37;94.74;96910.00;110119;1244;68523;-73
2023/04/20 01:29:17;;;;;;;8.20;5.10;;;;;;;3.36;94.69;96908.89;110129;1241;59770;-72
2023/04/20 01:31:49;;;;;;;6.00;4.70;;;;;;;3.34;94.37;96909.66;110168;1245;59696;-72
2023/04/20 01:34:20;;;;;;;7.70;5.20;;;;;;;3.26;97.34;96904.02;110092;1244;69837;-69
2023/04/20 01:36:51;;;;;;;7.50;5.00;;;;;;;3.21;96.39;96905.88;110196;1247;69181;-71
2023/04/20 01:39:22;;;;;;;6.30;4.60;;;;;;;3.12;96.82;96908.75;110103;1243;69896;-71
2023/04/20 01:41:56;;;;;;;6.60;4.60;;;;;;;3.02;97.32;96911.98;110105;1241;59707;-71
2023/04/20 01:44:27;;;;;;;6.50;5.10;;;;;;;2.92;97.70;96910.61;110172;1242;59631;-70
2023/04/20 01:46:58;;;;;;;6.10;4.20;;;;;;;2.84;97.82;96910.30;110271;1241;71412;-71
2023/04/20 01:49:28;;;;;;;6.10;4.20;;;;;;;2.78;99.92;96909.73;110270;1240;68488;-71
2023/04/20 01:51:59;;;;;;;7.80;4.80;;;;;;;2.72;100.00;96908.65;110174;1244;68552;-71
2023/04/20 01:54:30;;;;;;;8.90;5.30;;;;;;;2.68;100.00;96907.66;110279;1242;59657;-70
2023/04/20 01:57:03;;;;;;;5.90;5.00;;;;;;;2.62;100.00;96906.74;110171;1244;59730;-71
2023/04/20 01:59:35;;;;;;;5.70;4.40;;;;;;;2.58;100.00;96908.34;110274;1242;71472;-71
2023/04/20 02:02:06;;;;;;;5.30;4.10;;;;;;;2.53;100.00;96908.04;110168;1240;68257;-71
2023/04/20 02:04:38;;;;;;;5.90;4.00;;;;;;;2.49;100.00;96908.91;110229;1241;69307;-71
2023/04/20 02:07:09;;;;;;;5.40;4.00;;;;;;;2.46;100.00;96904.78;110207;1244;59660;-71
2023/04/20 02:09:40;;;;;;;6.10;4.10;;;;;;;2.43;99.34;96903.71;110188;1244;59731;-71
2023/04/20 02:12:11;;;;;;;5.20;4.20;;;;;;;2.41;99.47;96903.15;110187;1249;71609;-73
2023/04/20 02:14:42;;;;;;;5.00;3.60;;;;;;;2.39;100.00;96903.58;110486;1240;68703;-71
2023/04/20 02:17:16;;;;;;;5.70;4.30;;;;;;;2.35;100.00;96902.71;111060;1241;68309;-72
2023/04/20 02:19:48;;;;;;;7.70;5.20;;;;;;;2.31;99.37;96905.83;110236;1243;59664;-73
2023/04/20 02:22:19;;;;;;;6.50;4.40;;;;;;;2.32;98.38;96905.11;110217;1243;59664;-73
2023/04/20 02:24:52;;;;;;;6.90;4.80;;;;;;;2.30;98.64;96914.29;110160;1241;70622;-71
2023/04/20 02:27:22;;;;;;;5.80;4.10;;;;;;;2.29;99.79;96912.30;110317;1242;69102;-71
2023/04/20 02:29:56;;;;;;;6.20;4.10;;;;;;;2.27;100.00;96913.05;110240;1240;68466;-72
2023/04/20 02:32:28;;;;;;;7.40;5.00;;;;;;;2.23;100.00;96913.44;110266;1242;59675;-73
2023/04/20 02:35:03;;;;;;;6.00;4.60;;;;;;;2.19;100.00;96913.79;110247;1241;59734;-70
2023/04/20 02:37:34;;;;;;;6.40;4.70;;;;;;;2.16;100.00;96910.53;110192;1242;71353;-71
2023/04/20 02:40:07;;;;;;;8.10;4.90;;;;;;;2.13;100.00;96907.89;110172;1240;68350;-71
2023/04/20 02:42:39;;;;;;;7.10;4.30;;;;;;;2.09;100.00;96909.11;110171;1244;69276;-70
2023/04/20 02:45:12;;;;;;;6.00;4.80;;;;;;;2.04;100.00;96904.35;110158;1241;59743;-71
2023/04/20 02:47:46;;;;;;;8.00;5.80;;;;;;;2.02;100.00;96902.02;110160;1240;59702;-71
2023/04/20 02:50:19;;;;;;;7.90;6.20;;;;;;;2.01;100.00;96900.38;110210;1243;70563;-71
2023/04/20 02:53:04;;;;;;;9.40;6.20;;;;;;;1.99;100.00;96899.97;110135;1244;69330;-71
2023/04/20 02:55:36;;;;;;;8.20;5.10;;;;;;;1.97;100.00;96900.38;110161;1241;69158;-71
2023/04/20 02:58:19;;;;;;;6.80;4.90;;;;;;;1.97;100.00;96898.02;110324;1241;59684;-71
2023/04/20 03:01:08;;;;;;;6.40;4.90;;;;;;;1.94;99.87;96896.76;110174;1241;59738;-71
2023/04/20 03:03:40;;;;;;;6.70;5.40;;;;;;;1.91;98.97;96893.27;110145;1241;70442;-71
2023/04/20 03:06:13;;;;;;;7.00;4.80;;;;;;;1.87;99.23;96895.54;110250;1241;68596;-71
2023/04/20 03:08:48;;;;;;;6.80;5.40;;;;;;;1.84;99.89;96897.73;110219;1242;69613;-71
2023/04/20 03:12:01;;;;;;;6.60;4.60;;;;;;;1.82;100.00;96905.91;109811;1247;59799;-71
2023/04/20 03:14:52;;;;;;;6.90;4.90;;;;;;;1.81;100.00;96906.15;109685;1244;59666;-72
2023/04/20 03:17:27;;;;;;;5.90;4.10;;;;;;;1.79;100.00;96911.01;110104;1241;71916;-73
2023/04/20 03:19:59;;;;;;;6.30;4.80;;;;;;;1.78;100.00;96910.52;110854;1240;69251;-71
2023/04/20 03:22:32;;;;;;;7.90;4.70;;;;;;;1.76;100.00;96911.16;110971;1241;68379;-71
2023/04/20 03:25:03;;;;;;;7.90;5.50;;;;;;;1.76;100.00;96913.58;110230;1242;59760;-73
2023/04/20 03:28:09;;;;;;;8.60;5.70;;;;;;;1.76;100.00;96913.59;110104;1241;59683;-71
2023/04/20 03:30:41;;;;;;;8.10;5.70;;;;;;;1.74;100.00;96910.55;109903;1246;71413;-71
2023/04/20 03:33:15;;;;;;;8.20;5.70;;;;;;;1.72;100.00;96909.45;110147;1245;69610;-71
2023/04/20 03:35:45;;;;;;;8.30;6.30;;;;;;;1.71;100.00;96904.84;110165;1245;70250;-71
2023/04/20 03:38:16;;;;;;;10.60;7.20;;;;;;;1.72;100.00;96908.61;110263;1240;59676;-71
2023/04/20 03:40:46;;;;;;;;;;;;;;;1.73;100.00;96909.77;110196;1244;59646;-72
2023/04/20 03:43:16;;;;;;;10.00;6.70;;;;;;;1.76;100.00;96913.72;110194;1244;70390;-71
2023/04/20 03:45:46;;;;;;;11.00;7.70;;;;;;;1.82;100.00;96916.55;110162;1241;69248;-71
2023/04/20 03:48:18;;;;;;;10.40;6.90;;;;;;;1.86;100.00;96918.24;110215;1243;69961;-71
2023/04/20 03:50:48;;;;;;;9.40;6.40;;;;;;;1.89;100.00;96921.39;110194;1243;59684;-70
2023/04/20 03:53:17;;;;;;;9.70;5.70;;;;;;;1.90;100.00;96919.98;110370;1240;59674;-72
2023/04/20 03:55:47;;;;;;;9.40;6.00;;;;;;;1.91;100.00;96922.14;110133;1244;70906;-72
2023/04/20 03:58:20;;;;;;;7.70;6.50;;;;;;;1.94;100.00;96926.81;110187;1241;68435;-73
2023/04/20 04:01:07;;;;;;;10.70;6.90;;;;;;;1.96;100.00;96930.19;110214;1242;69232;-73
2023/04/20 04:03:40;;;;;;;9.50;6.80;;;;;;;1.97;100.00;96929.41;110141;1243;59692;-72
2023/04/20 04:06:10;;;;;;;7.90;5.80;;;;;;;1.98;100.00;96926.80;110144;1244;59741;-72
2023/04/20 04:08:41;;;;;;;9.30;6.70;;;;;;;2.01;100.00;96929.23;110154;1244;71992;-72
2023/04/20 04:11:11;;;;;;;9.60;7.30;;;;;;;2.03;100.00;96928.45;110207;1241;69451;-72
2023/04/20 04:13:41;;;;;;;22.80;18.90;;;;;;;2.07;100.00;96926.56;110175;1243;68616;-72
2023/04/20 04:16:10;;;;;;;18.60;14.20;;;;;;;2.12;100.00;96930.63;110215;1245;59798;-71
2023/04/20 04:18:44;;;;;;;16.40;12.40;;;;;;;2.20;100.00;96934.89;110216;1240;59668;-72
2023/04/20 04:21:14;;;;;;;18.10;13.70;;;;;;;2.29;100.00;96935.85;110130;1244;71950;-72
2023/04/20 04:23:49;;;;;;;17.40;12.20;;;;;;;2.40;100.00;96934.48;110586;1240;69958;-72
2023/04/20 04:26:30;;;;;;;21.00;14.00;;;;;;;2.52;100.00;96934.24;111172;1241;68556;-74
2023/04/20 04:28:59;;;;;;;16.50;12.20;;;;;;;2.64;100.00;96940.19;110231;1241;59699;-72
2023/04/20 04:31:31;;;;;;;12.10;8.90;;;;;;;2.76;100.00;96940.49;110328;1240;59621;-71
2023/04/20 04:34:05;;;;;;;11.90;8.70;;;;;;;2.86;100.00;96936.56;110525;1241;72022;-71
2023/04/20 04:36:40;;;;;;;12.50;9.80;;;;;;;2.97;100.00;96939.61;110461;1240;69853;-70
2023/04/20 04:39:12;;;;;;;11.30;8.40;;;;;;;3.06;100.00;96939.34;110265;1242;70265;-72
2023/04/20 04:41:50;;;;;;;10.50;7.00;;;;;;;3.14;100.00;96937.89;110501;1241;60088;-71
2023/04/20 04:44:30;;;;;;;11.70;7.50;;;;;;;3.18;100.00;96932.68;110338;1242;59677;-73
2023/04/20 04:47:04;;;;;;;11.10;6.40;;;;;;;3.21;100.00;96926.52;110320;1240;71464;-72
2023/04/20 04:49:34;;;;;;;10.80;7.70;;;;;;;3.28;100.00;96930.10;110290;1242;69043;-73
2023/04/20 04:52:04;;;;;;;11.70;7.40;;;;;;;3.35;100.00;96928.20;110456;1241;69281;-73
2023/04/20 04:54:33;;;;;;;11.90;8.30;;;;;;;3.46;100.00;96928.68;110280;1242;59684;-72
2023/04/20 04:57:02;;;;;;;11.70;7.90;;;;;;;3.57;100.00;96927.76;110396;1241;59625;-73
2023/04/20 04:59:31;;;;;;;12.20;8.60;;;;;;;3.69;100.00;96932.84;110329;1242;72123;-72
2023/04/20 05:02:00;;;;;;;11.80;8.50;;;;;;;3.80;100.00;96935.47;110407;1242;68560;-72
2023/04/20 05:04:30;;;;;;;12.90;8.70;;;;;;;3.95;100.00;96943.48;110415;1241;70252;-72
2023/04/20 05:07:00;;;;;;;15.20;10.50;;;;;;;4.08;100.00;96953.32;110479;1241;59686;-72
2023/04/20 05:09:32;;;;;;;12.10;9.00;;;;;;;4.18;100.00;96954.16;110300;1241;59686;-71
2023/04/20 05:12:02;;;;;;;11.70;8.50;;;;;;;4.28;100.00;96957.23;110261;1242;71476;-71
2023/04/20 05:14:32;;;;;;;11.60;8.30;;;;;;;4.37;100.00;96959.46;110358;1241;69218;-71
2023/04/20 05:17:02;;;;;;;11.20;8.10;;;;;;;4.49;100.00;96958.98;110233;1242;69099;-70
2023/04/20 05:19:31;;;;;;;11.30;8.80;;;;;;;4.67;100.00;96952.45;110314;1241;59673;-71
2023/04/20 05:22:01;;;;;;;13.10;9.10;;;;;;;4.82;100.00;96956.11;110291;1241;59706;-71
2023/04/20 05:24:30;;;;;;;13.70;10.10;;;;;;;4.99;100.00;96958.07;110319;1241;70754;-73
2023/04/20 05:27:01;;;;;;;15.60;10.20;;;;;;;5.17;100.00;96961.50;110291;1240;68852;-74
2023/04/20 05:29:31;;;;;;;11.20;9.00;;;;;;;5.35;99.80;96961.16;111257;1241;69294;-73
2023/04/20 05:32:01;;;;;;;11.50;8.20;;;;;;;5.49;97.94;96963.25;110483;1242;59744;-71
2023/04/20 05:34:30;;;;;;;13.90;8.20;;;;;;;5.72;96.34;96969.65;110238;1243;59635;-72
2023/04/20 05:37:03;;;;;;;9.10;6.90;;;;;;;5.98;94.42;96971.36;110257;1243;71227;-71
2023/04/20 05:39:32;;;;;;;8.40;5.90;;;;;;;6.37;94.62;96976.91;110166;1241;68541;-72
2023/04/20 05:42:02;;;;;;;14.70;12.70;;;;;;;6.93;96.36;96981.84;110164;1243;69881;-73
2023/04/20 05:44:32;;;;;;;18.50;13.70;;;;;;;7.54;94.57;96981.29;110141;1243;59699;-73
2023/04/20 05:47:05;;;;;;;16.10;12.30;;;;;;;8.20;92.73;96982.44;110182;1241;59729;-72
2023/04/20 05:49:35;;;;;;;11.30;9.80;;;;;;;8.89;88.28;96981.71;110171;1244;71989;-72
2023/04/20 05:52:04;;;;;;;13.60;9.90;;;;;;;9.55;86.62;96982.23;110315;1242;69484;-71
2023/04/20 05:54:33;;;;;;;13.00;9.90;;;;;;;10.16;88.05;96976.16;110218;1242;69863;-71
2023/04/20 05:57:04;;;;;;;14.90;10.10;;;;;;;10.79;83.97;96980.07;110157;1246;59747;-72
2023/04/20 05:59:33;;;;;;;7.90;6.80;;;;;;;11.34;72.97;96979.95;110228;1242;59637;-71
2023/04/20 06:02:02;;;;;;;6.50;4.70;;;;;;;11.78;66.36;96972.23;110337;1242;71972;-72
2023/04/20 06:04:32;;;;;;;9.10;7.30;;;;;;;12.15;65.53;96965.61;110201;1241;69111;-70
2023/04/20 06:07:02;;;;;;;8.80;6.80;;;;;;;12.21;63.03;96966.34;110259;1241;69846;-71
2023/04/20 06:09:31;;;;;;;11.70;7.70;;;;;;;12.46;65.19;96963.83;110185;1240;59701;-72
2023/04/20 06:12:01;;;;;;;9.50;7.00;;;;;;;12.49;61.98;96965.89;110126;1243;59692;-72
2023/04/20 06:14:30;;;;;;;10.10;6.30;;;;;;;12.61;61.04;96966.38;110270;1241;71855;-71
2023/04/20 06:16:59;;;;;;;11.80;6.40;;;;;;;12.75;61.73;96969.30;110170;1241;69207;-71
2023/04/20 06:19:28;;;;;;;9.80;6.80;;;;;;;12.93;61.13;96970.00;110141;1240;68473;-71
2023/04/20 06:21:58;;;;;;;5.00;4.00;;;;;;;13.32;61.00;96965.87;110316;1242;59663;-70
2023/04/20 06:24:29;;;;;;;5.40;3.50;;;;;;;13.28;56.29;96962.69;110343;1240;59754;-71
2023/04/20 06:27:01;;;;;;;4.90;3.70;;;;;;;13.58;56.39;96959.23;110243;1240;71213;-73
2023/04/20 06:29:31;;;;;;;7.40;5.80;;;;;;;13.91;57.41;96958.74;110227;1243;69851;-73
2023/04/20 06:32:00;;;;;;;12.30;5.90;;;;;;;14.05;56.26;96955.33;110286;1240;69572;-71
2023/04/20 06:34:30;;;;;;;4.60;3.80;;;;;;;14.49;55.49;96954.89;111124;1241;59700;-70
2023/04/20 06:36:59;;;;;;;4.60;3.50;;;;;;;14.79;52.72;96955.00;110443;1242;60075;-72
2023/04/20 06:39:27;;;;;;;4.20;3.50;;;;;;;15.16;54.81;96955.09;110173;1240;71969;-70
2023/04/20 06:41:57;;;;;;;4.70;3.70;;;;;;;14.97;52.38;96952.65;110229;1241;69816;-72
2023/04/20 06:44:28;;;;;;;4.40;3.40;;;;;;;15.00;53.29;96949.09;110196;1241;69844;-72
2023/04/20 06:46:58;;;;;;;4.50;3.40;;;;;;;14.82;52.85;96950.30;110178;1244;59744;-72
2023/04/20 06:49:26;;;;;;;4.40;3.20;;;;;;;14.72;52.78;96948.60;110160;1244;60094;-72
2023/04/20 06:51:55;;;;;;;5.80;3.70;;;;;;;14.86;51.86;96945.15;110234;1241;72033;-72
2023/04/20 06:54:24;;;;;;;5.20;3.50;;;;;;;14.99;53.01;96942.36;110430;1242;69283;-72
2023/04/20 06:56:53;;;;;;;4.80;3.50;;;;;;;15.26;50.47;96942.15;110288;1240;69499;-72
2023/04/20 06:59:22;;;;;;;5.00;3.80;;;;;;;15.50;50.35;96940.27;110251;1242;60044;-72
2023/04/20 07:01:51;;;;;;;6.30;3.90;;;;;;;15.77;50.31;96937.93;110351;1242;59675;-72
2023/04/20 07:04:20;;;;;;;6.30;4.00;;;;;;;15.49;48.40;96940.02;110385;1240;71706;-72
2023/04/20 07:06:50;;;;;;;5.50;3.60;;;;;;;15.81;48.21;96939.84;110418;1240;68568;-72
2023/04/20 07:09:22;;;;;;;7.30;5.30;;;;;;;16.12;48.32;96938.04;110216;1241;68508;-73
2023/04/20 07:11:50;;;;;;;8.10;5.20;;;;;;;16.49;48.99;96938.58;110250;1242;59712;-71
2023/04/20 07:14:19;;;;;;;7.90;5.80;;;;;;;16.76;48.16;96934.16;110168;1241;59757;-72
2023/04/20 07:16:52;;;;;;;8.40;5.30;;;;;;;16.35;47.48;96933.19;110167;1240;71177;-68
2023/04/20 07:19:22;;;;;;;5.70;4.60;;;;;;;16.01;49.07;96933.33;110113;1245;69848;-72
2023/04/20 07:21:52;;;;;;;12.50;6.40;;;;;;;16.10;48.73;96928.89;110179;1243;69128;-72
2023/04/20 07:24:21;;;;;;;9.70;6.30;;;;;;;16.26;48.49;96925.35;110275;1241;59733;-72
2023/04/20 07:26:51;;;;;;;8.90;7.00;;;;;;;16.36;48.42;96928.39;110334;1242;59673;-71
2023/04/20 07:29:20;;;;;;;;;;;;;;;16.32;48.06;96927.35;110408;1241;71200;-72
2023/04/20 07:31:49;;;;;;;9.40;5.90;;;;;;;16.17;48.43;96929.77;110317;1241;69041;-72
2023/04/20 07:34:18;;;;;;;8.50;6.00;;;;;;;16.32;48.21;96929.27;110296;1242;70357;-71
2023/04/20 07:36:47;;;;;;;8.80;5.80;;;;;;;16.35;48.16;96927.61;110451;1242;59685;-71
2023/04/20 07:39:17;;;;;;;7.00;5.20;;;;;;;16.81;47.56;96930.52;111233;1242;58914;-71
2023/04/20 07:41:47;;;;;;;8.40;6.00;;;;;;;17.40;47.41;96924.85;110296;1242;71360;-72
2023/04/20 07:44:16;;;;;;;7.20;5.30;;;;;;;17.60;45.56;96923.02;110361;1242;69183;-71
2023/04/20 07:46:46;;;;;;;8.10;5.50;;;;;;;17.91;45.94;96924.15;110332;1242;70229;-72
2023/04/20 07:49:14;;;;;;;6.00;4.70;;;;;;;18.17;44.44;96918.09;110349;1242;59678;-72
2023/04/20 07:51:44;;;;;;;7.40;4.60;;;;;;;18.60;44.21;96922.60;110328;1241;59735;-72
2023/04/20 07:54:13;;;;;;;12.10;5.40;;;;;;;18.83;42.89;96929.72;110351;1239;70958;-72
2023/04/20 07:56:42;;;;;;;6.60;4.90;;;;;;;18.84;42.00;96925.34;110311;1242;69236;-72
2023/04/20 07:59:11;;;;;;;5.60;4.50;;;;;;;18.50;42.03;96925.42;110345;1240;68837;-71
2023/04/20 08:01:41;;;;;;;8.70;4.30;;;;;;;18.41;42.37;96920.46;110264;1242;59683;-72
2023/04/20 08:04:10;;;;;;;8.80;3.90;;;;;;;18.58;41.73;96925.95;110258;1241;59702;-71
2023/04/20 08:06:41;;;;;;;5.10;3.70;;;;;;;18.74;41.98;96923.61;110242;1242;71621;-70
2023/04/20 08:09:10;;;;;;;5.70;3.10;;;;;;;18.89;41.65;96920.75;110280;1244;69281;-72
2023/04/20 08:11:45;;;;;;;4.70;3.20;;;;;;;18.76;40.79;96922.48;110262;1241;68940;-71
2023/04/20 08:14:14;;;;;;;;;;;;;;;18.70;41.75;96917.85;110297;1242;59677;-72
2023/04/20 08:16:44;;;;;;;3.90;2.70;;;;;;;19.02;40.96;96920.95;110236;1242;59676;-71
2023/04/20 08:19:13;;;;;;;3.60;2.50;;;;;;;19.12;40.89;96920.27;110231;1239;72122;-72
2023/04/20 08:21:42;;;;;;;4.80;3.00;;;;;;;19.14;41.17;96920.83;110163;1243;69231;-71
2023/04/20 08:24:12;;;;;;;4.50;2.90;;;;;;;18.88;38.66;96922.03;110198;1241;69727;-72
2023/04/20 08:26:42;;;;;;;4.20;3.20;;;;;;;19.22;39.23;96925.86;110124;1244;59744;-72
2023/04/20 08:29:11;;;;;;;4.40;2.70;;;;;;;19.38;40.22;96924.91;110188;1245;59689;-71
2023/04/20 08:31:41;;;;;;;4.50;3.40;;;;;;;19.52;39.42;96922.61;110168;1244;71237;-71
2023/04/20 08:34:11;;;;;;;5.10;3.50;;;;;;;19.76;40.30;96919.23;110177;1243;69229;-71
2023/04/20 08:36:40;;;;;;;4.00;3.00;;;;;;;19.52;38.93;96919.52;110173;1244;69887;-71
2023/04/20 08:39:12;;;;;;;3.50;2.80;;;;;;;19.95;38.55;96914.89;109808;1243;518662;-72
2023/04/20 08:41:41;;;;;;;5.60;3.80;;;;;;;19.18;37.95;96919.67;110426;1243;59627;-71
2023/04/20 08:44:11;;;;;;;6.00;3.50;;;;;;;18.89;38.86;96916.66;110915;1244;70242;-72
2023/04/20 08:46:45;;;;;;;5.20;3.30;;;;;;;19.36;40.24;96917.20;110220;1241;67960;-73
2023/04/20 08:49:16;;;;;;;4.70;3.30;;;;;;;20.13;39.36;96906.00;110171;1243;69424;-71
2023/04/20 08:51:46;;;;;;;5.70;3.70;;;;;;;20.36;38.38;96910.71;110147;1244;59711;-70
2023/04/20 08:54:16;;;;;;;7.30;3.80;;;;;;;21.03;37.79;96908.59;110163;1244;59710;-72
2023/04/20 08:56:46;;;;;;;5.40;3.20;;;;;;;21.11;37.45;96910.96;110144;1241;70549;-71
2023/04/20 08:59:15;;;;;;;4.60;3.30;;;;;;;21.06;37.22;96910.66;110139;1243;69050;-71
2023/04/20 09:01:45;;;;;;;6.50;3.10;;;;;;;21.30;36.98;96909.39;110149;1243;67706;-71
2023/04/20 09:04:19;;;;;;;3.70;2.70;;;;;;;21.77;37.66;96907.81;110160;1250;59709;-70
2023/04/20 09:06:51;;;;;;;4.70;3.10;;;;;;;21.54;36.69;96909.23;110137;1241;59747;-71
2023/04/20 09:09:22;;;;;;;3.70;2.80;;;;;;;21.25;36.62;96911.77;110176;1244;70640;-71
2023/04/20 09:12:03;;;;;;;4.50;2.70;;;;;;;21.16;35.85;96908.35;110153;1241;68642;-71
2023/04/20 09:14:46;;;;;;;4.50;3.10;;;;;;;20.59;35.77;96905.39;110109;1245;68536;-72
2023/04/20 09:17:16;;;;;;;5.00;2.80;;;;;;;20.40;37.33;96901.17;110151;1241;59683;-71
2023/04/20 09:19:52;;;;;;;3.70;2.90;;;;;;;20.53;38.25;96902.77;110160;1244;59689;-71
2023/04/20 09:22:33;;;;;;;4.50;3.00;;;;;;;20.46;37.13;96898.15;110156;1245;70663;-71
2023/04/20 09:25:15;;;;;;;6.10;3.30;;;;;;;19.85;37.66;96899.95;110244;1241;68240;-72
2023/04/20 09:27:58;;;;;;;4.40;2.70;;;;;;;19.61;39.33;96896.98;110234;1242;70225;-71
2023/04/20 09:30:44;;;;;;;5.70;3.30;;;;;;;19.40;38.46;96896.23;110228;1242;59708;-71
2023/04/20 09:33:14;;;;;;;6.00;3.80;;;;;;;19.28;39.70;96895.52;110175;1244;59736;-71
2023/04/20 09:35:44;;;;;;;;;;;;;;;19.01;40.30;96897.04;110271;1242;71808;-72
2023/04/20 09:38:28;;;;;;;5.20;3.50;;;;;;;18.71;41.10;96903.73;110192;1240;68252;-72
2023/04/20 09:41:00;;;;;;;5.00;3.30;;;;;;;18.64;40.32;96909.60;110223;1240;68546;-72
2023/04/20 09:43:30;;;;;;;5.40;3.60;;;;;;;19.05;40.06;96907.52;110280;1241;59706;-72
2023/04/20 09:45:59;;;;;;;;;;;;;;;19.37;39.48;96904.31;110996;1240;59627;-72
2023/04/20 09:48:28;;;;;;;6.30;3.00;;;;;;;19.70;39.51;96902.27;110665;1240;71953;-73
2023/04/20 09:51:01;;;;;;;4.30;2.80;;;;;;;20.38;38.78;96897.02;110308;1240;69302;-72
2023/04/20 09:53:32;;;;;;;4.90;2.70;;;;;;;21.01;38.50;96896.38;110274;1241;69401;-72
2023/04/20 09:56:02;;;;;;;4.30;2.40;;;;;;;21.86;36.78;96885.59;110235;1241;59741;-72
2023/04/20 09:58:33;;;;;;;3.00;2.50;;;;;;;22.47;35.35;96885.95;110337;1242;59744;-71
2023/04/20 10:01:02;;;;;;;4.70;2.60;;;;;;;22.50;34.93;96883.34;110250;1243;71511;-72
2023/04/20 10:03:31;;;;;;;;;;;;;;;22.44;34.49;96875.61;110272;1242;69168;-73
2023/04/20 10:06:00;;;;;;;;;;;;;;;22.19;34.57;96874.30;110320;1242;69779;-72
2023/04/20 10:08:40;;;;;;;4.50;2.60;;;;;;;21.86;35.30;96874.69;110274;1242;59686;-74
2023/04/20 10:11:10;;;;;;;6.20;2.80;;;;;;;21.40;35.70;96874.10;110294;1242;59747;-73
2023/04/20 10:13:39;;;;;;;2.90;2.20;;;;;;;21.67;35.41;96873.29;110296;1242;72121;-72
2023/04/20 10:16:17;;;;;;;4.70;2.60;;;;;;;21.67;34.87;96871.86;110326;1242;70692;-72
2023/04/20 10:18:57;;;;;;;3.30;2.40;;;;;;;21.42;35.01;96865.58;110230;1241;70212;-71
2023/04/20 10:21:28;;;;;;;3.10;2.00;;;;;;;21.73;34.68;96862.52;110293;1242;59740;-71
2023/04/20 10:23:59;;;;;;;4.70;2.20;;;;;;;21.88;33.78;96854.47;110206;1243;59752;-70
2023/04/20 10:26:36;;;;;;;4.80;2.80;;;;;;;21.74;34.24;96854.64;110144;1241;70620;-71
2023/04/20 10:29:05;;;;;;;5.90;2.80;;;;;;;21.42;33.71;96857.30;110145;1241;69277;-71
2023/04/20 10:31:37;;;;;;;3.00;2.20;;;;;;;20.98;34.72;96860.60;110121;1243;68358;-73
2023/04/20 10:34:08;;;;;;;3.30;2.10;;;;;;;20.50;35.34;96861.27;110169;1247;59747;-72
2023/04/20 10:36:37;;;;;;;4.30;2.10;;;;;;;20.17;36.89;96869.11;110167;1241;59760;-72
2023/04/20 10:39:15;;;;;;;5.80;3.00;;;;;;;20.00;40.64;96871.46;110151;1241;71219;-72
2023/04/20 10:42:02;;;;;;;4.60;2.70;;;;;;;19.32;44.04;96877.69;110137;1245;69766;-71
2023/04/20 10:44:34;;;;;;;3.50;2.40;;;;;;;18.82;44.00;96876.61;110120;1243;69648;-71
2023/04/20 10:47:03;;;;;;;3.20;2.50;;;;;;;18.31;47.25;96880.89;110224;1244;59728;-73
2023/04/20 10:49:33;;;;;;;3.70;2.50;;;;;;;17.89;51.57;96882.36;110989;1240;59682;-71
2023/04/20 10:52:02;;;;;;;3.30;2.70;;;;;;;17.44;53.89;96887.30;110877;1243;71708;-71
2023/04/20 10:54:38;;;;;;;5.40;3.20;;;;;;;16.96;55.92;96889.87;110177;1244;68819;-72
2023/04/20 10:57:07;;;;;;;7.40;3.50;;;;;;;16.50;57.00;96886.58;110163;1243;69745;-71
2023/04/20 10:59:37;;;;;;;4.70;3.20;;;;;;;15.98;58.16;96883.59;110165;1240;59893;-71
2023/04/20 11:02:07;;;;;;;;;;;;;;;15.67;58.11;96881.75;110174;1241;59696;-72
2023/04/20 11:04:36;;;;;;;7.40;4.00;;;;;;;15.39;58.95;96889.41;110171;1241;71982;-72
2023/04/20 11:07:11;;;;;;;5.50;3.80;;;;;;;15.19;60.75;96890.72;110169;1243;69207;-72
2023/04/20 11:09:43;;;;;;;5.50;3.60;;;;;;;14.94;61.76;96892.27;110146;1241;69292;-72
2023/04/20 11:12:13;;;;;;;4.90;3.40;;;;;;;14.81;62.97;96893.23;110192;1245;59747;-71
2023/04/20 11:14:56;;;;;;;5.00;3.50;;;;;;;14.78;63.24;96891.20;110167;1244;59671;-72
2023/04/20 11:17:37;;;;;;;5.40;3.40;;;;;;;14.88;65.26;96893.09;110173;1241;70661;-72
2023/04/20 11:20:13;;;;;;;4.70;3.00;;;;;;;15.16;62.74;96889.10;110209;1245;69200;-72
2023/04/20 11:22:42;;;;;;;5.90;3.00;;;;;;;15.61;61.76;96889.73;110118;1245;69291;-72
2023/04/20 11:25:11;;;;;;;;;;;;;;;15.94;58.90;96884.70;110189;1243;59714;-71
2023/04/20 11:27:41;;;;;;;4.70;2.90;;;;;;;16.60;58.54;96885.72;110144;1244;59682;-72
2023/04/20 11:30:11;;;;;;;5.00;3.40;;;;;;;17.24;54.86;96882.06;110217;1243;71344;-71
2023/04/20 11:32:39;;;;;;;6.60;3.30;;;;;;;17.55;51.32;96880.11;110171;1245;68393;-72
2023/04/20 11:35:09;;;;;;;4.00;2.80;;;;;;;17.60;51.58;96873.23;110161;1241;69867;-71
2023/04/20 11:37:53;;;;;;;4.10;2.80;;;;;;;17.40;51.99;96877.70;110092;1240;59697;-71
2023/04/20 11:40:22;;;;;;;6.00;2.50;;;;;;;17.29;50.68;96872.52;110118;1243;60149;-71
2023/04/20 11:42:51;;;;;;;4.40;2.90;;;;;;;17.08;50.38;96879.60;110175;1241;71977;-71
2023/04/20 11:45:22;;;;;;;5.20;2.60;;;;;;;16.90;49.53;96878.39;110133;1244;69427;-72
2023/04/20 11:47:52;;;;;;;4.50;3.00;;;;;;;16.96;50.40;96878.17;110134;1243;69281;-72